Time;durP1;ratioP1;P1;durP2;ratioP2;P2;SDS_P1;SDS_P2;PMS_P1;PMS_P2;Temp;Humidity;BMP_temperature;BMP_pressure;BME280_temperature;BME280_humidity;BME280_pressure;Samples;Min_cycle;Max_cycle;Signal;HPM_P1;HPM_P2
2021/10/06 04:24:09;;;;;;;22.62;10.70;;;;;;;5.32;75.08;99010.36;1871519;76;22643;-62
2021/10/06 04:26:35;;;;;;;12.10;8.40;;;;;;;5.28;75.08;99008.39;1827905;78;20824;-59
2021/10/06 04:29:03;;;;;;;16.80;7.53;;;;;;;5.29;75.18;99006.04;1827943;78;21111;-59
2021/10/06 04:31:30;;;;;;;11.30;7.87;;;;;;;5.31;75.32;99004.77;1827791;78;20907;-56
2021/10/06 04:33:56;;;;;;;12.93;8.35;;;;;;;5.32;75.34;99007.70;1827920;78;20829;-57
2021/10/06 04:36:23;;;;;;;14.15;8.33;;;;;;;5.37;75.37;99009.14;1827938;78;20955;-57
2021/10/06 04:38:50;;;;;;;13.50;9.60;;;;;;;5.42;75.34;99014.58;1827861;78;20872;-58
2021/10/06 04:41:17;;;;;;;15.28;8.18;;;;;;;5.45;75.24;99003.49;1827861;78;21104;-58
2021/10/06 04:43:43;;;;;;;13.38;7.83;;;;;;;5.50;75.13;99002.28;1827755;78;20983;-57
2021/10/06 04:46:10;;;;;;;14.78;7.55;;;;;;;5.53;74.99;99005.77;1827915;78;20955;-60
2021/10/06 04:48:37;;;;;;;10.53;6.55;;;;;;;5.58;74.89;99008.28;1791496;80;21279;-57
2021/10/06 04:51:04;;;;;;;12.53;7.70;;;;;;;5.62;74.80;99005.43;1791304;80;20911;-58
2021/10/06 04:53:31;;;;;;;12.82;8.25;;;;;;;5.65;74.67;99002.31;1791594;80;21357;-60
2021/10/06 04:55:58;;;;;;;17.40;7.83;;;;;;;5.69;74.57;99004.78;1791192;80;20828;-58
2021/10/06 04:58:24;;;;;;;12.82;8.28;;;;;;;5.75;74.45;99005.16;1791417;80;21331;-57
2021/10/06 05:00:51;;;;;;;15.78;8.20;;;;;;;5.75;74.35;99003.83;1791639;80;20891;-58
2021/10/06 05:03:18;;;;;;;21.42;8.55;;;;;;;5.78;74.15;99006.03;1791498;80;20902;-61
2021/10/06 05:05:45;;;;;;;15.80;9.48;;;;;;;5.80;74.02;99010.59;1783916;80;21098;-61
2021/10/06 05:08:13;;;;;;;16.97;9.45;;;;;;;5.82;73.91;99005.84;1791418;80;21450;-61
2021/10/06 05:10:41;;;;;;;16.70;8.55;;;;;;;5.84;73.85;99001.13;1761661;80;20904;-59
2021/10/06 05:13:09;;;;;;;17.37;8.75;;;;;;;5.88;73.77;99008.94;1790506;79;20989;-59
2021/10/06 05:15:38;;;;;;;12.23;8.43;;;;;;;5.91;73.65;99009.26;1761275;80;20878;-62
2021/10/06 05:18:10;;;;;;;18.37;9.18;;;;;;;5.96;73.48;99012.54;1790363;80;21197;-59
2021/10/06 05:20:38;;;;;;;13.62;8.38;;;;;;;6.01;73.27;99011.31;1760761;80;20963;-58
2021/10/06 05:23:04;;;;;;;16.57;9.23;;;;;;;6.06;73.05;99002.92;1788808;80;20975;-57
2021/10/06 05:25:31;;;;;;;18.45;8.10;;;;;;;6.13;72.75;99009.42;1785613;80;20970;-57
2021/10/06 05:27:58;;;;;;;12.05;7.15;;;;;;;6.18;72.59;99005.54;1785170;80;20930;-61
2021/10/06 05:30:25;;;;;;;14.53;7.60;;;;;;;6.25;72.46;99004.88;1784393;80;21129;-62
2021/10/06 05:32:52;;;;;;;10.28;7.40;;;;;;;6.32;72.21;99009.53;1784320;80;20942;-62
2021/10/06 05:35:18;;;;;;;15.80;7.80;;;;;;;6.39;72.05;99011.52;1783921;80;21050;-60
2021/10/06 05:37:47;;;;;;;13.05;8.18;;;;;;;6.46;71.74;99014.84;1783895;80;21009;-61
2021/10/06 05:40:15;;;;;;;11.88;8.65;;;;;;;6.52;71.42;99013.91;1753526;80;21090;-60
2021/10/06 05:42:41;;;;;;;13.35;7.45;;;;;;;6.58;71.34;99010.28;1785618;80;21043;-56
2021/10/06 05:45:09;;;;;;;11.30;7.72;;;;;;;6.65;70.99;99016.26;1785317;80;20974;-57
2021/10/06 05:47:36;;;;;;;18.52;8.20;;;;;;;6.73;70.72;99023.86;1785571;80;21399;-61
2021/10/06 05:50:05;;;;;;;15.55;8.45;;;;;;;6.78;70.59;99021.26;1785483;80;20931;-63
2021/10/06 05:52:34;;;;;;;14.03;6.92;;;;;;;6.88;70.37;99027.28;1785719;80;20919;-62
2021/10/06 05:55:01;;;;;;;10.05;7.45;;;;;;;6.99;70.16;99035.75;1785441;80;21777;-60
2021/10/06 05:57:28;;;;;;;11.45;7.62;;;;;;;7.11;69.70;99039.66;1785368;80;21443;-61
2021/10/06 05:59:55;;;;;;;12.03;7.50;;;;;;;7.23;69.30;99047.05;1785449;80;20884;-58
2021/10/06 06:02:23;;;;;;;13.28;7.45;;;;;;;7.34;69.04;99046.14;1785253;80;20954;-60
2021/10/06 06:04:50;;;;;;;17.17;7.80;;;;;;;7.45;68.39;99057.23;1785798;80;20884;-60
2021/10/06 06:07:17;;;;;;;19.25;7.78;;;;;;;7.52;67.96;99054.69;1785405;80;21073;-61
2021/10/06 06:09:45;;;;;;;15.45;7.90;;;;;;;7.61;67.79;99052.40;1785349;80;21316;-60
2021/10/06 06:12:12;;;;;;;23.98;7.95;;;;;;;7.70;67.58;99050.14;1785444;80;21434;-58
2021/10/06 06:14:40;;;;;;;14.45;7.05;;;;;;;7.78;67.31;99061.18;1785394;80;21087;-60
2021/10/06 06:17:10;;;;;;;17.85;6.75;;;;;;;7.85;66.95;99056.47;1785467;80;21423;-58
2021/10/06 06:19:38;;;;;;;13.48;6.87;;;;;;;7.95;66.94;99059.28;1773926;80;21067;-60
2021/10/06 06:22:05;;;;;;;10.15;7.25;;;;;;;8.05;66.60;99052.75;1764359;80;21374;-60
2021/10/06 06:24:33;;;;;;;13.40;7.15;;;;;;;8.16;66.32;99049.14;1721064;82;21054;-59
2021/10/06 06:27:00;;;;;;;13.65;7.60;;;;;;;8.28;66.20;99053.04;1789414;79;20967;-59
2021/10/06 06:29:32;;;;;;;13.32;7.55;;;;;;;8.42;65.77;99066.80;1721469;82;21054;-63
2021/10/06 06:32:09;;;;;;;13.18;7.00;;;;;;;8.49;65.09;99051.39;1758346;80;21523;-63
2021/10/06 06:34:43;;;;;;;18.32;6.97;;;;;;;8.57;65.03;99055.75;1789980;78;20892;-58
2021/10/06 06:37:11;;;;;;;11.65;7.25;;;;;;;8.66;64.47;99060.94;1752849;80;20875;-62
2021/10/06 06:39:40;;;;;;;17.42;7.65;;;;;;;8.73;64.41;99067.41;1813335;78;20939;-58
2021/10/06 06:42:09;;;;;;;15.85;7.70;;;;;;;8.81;64.29;99068.28;1733726;82;21033;-59
2021/10/06 06:44:38;;;;;;;13.53;7.37;;;;;;;8.89;64.05;99065.16;1748135;82;21120;-60
2021/10/06 06:47:06;;;;;;;12.15;7.45;;;;;;;8.96;63.65;99073.77;1748274;82;21493;-61
2021/10/06 06:49:33;;;;;;;11.28;7.15;;;;;;;9.05;63.66;99072.25;1758500;80;21666;-59
2021/10/06 06:52:04;;;;;;;15.13;8.15;;;;;;;9.14;63.34;99067.27;1772825;80;20931;-61
2021/10/06 06:54:33;;;;;;;17.75;7.75;;;;;;;9.22;63.25;99071.60;1778850;78;20943;-61
2021/10/06 06:57:02;;;;;;;15.53;7.60;;;;;;;9.31;63.01;99078.61;1822184;77;21086;-62
2021/10/06 06:59:32;;;;;;;18.02;7.85;;;;;;;9.39;62.96;99077.63;1780338;80;20967;-60
2021/10/06 07:02:03;;;;;;;15.50;7.90;;;;;;;9.51;62.75;99084.13;1780495;80;21080;-59
2021/10/06 07:04:35;;;;;;;19.73;8.18;;;;;;;9.62;62.84;99084.46;1821848;78;20880;-63
2021/10/06 07:07:04;;;;;;;23.73;7.33;;;;;;;9.73;62.23;99086.13;1792544;79;21025;-61
2021/10/06 07:09:36;;;;;;;10.65;7.50;;;;;;;9.80;61.91;99090.72;1822710;77;21721;-59
2021/10/06 07:12:05;;;;;;;19.60;7.05;;;;;;;9.88;61.67;99092.93;1779423;79;20907;-58
2021/10/06 07:14:38;;;;;;;21.00;7.50;;;;;;;9.96;61.77;99096.99;1784948;79;20951;-58
2021/10/06 07:17:06;;;;;;;13.83;6.95;;;;;;;10.05;61.45;99092.75;1814869;78;20971;-60
2021/10/06 07:19:36;;;;;;;18.17;7.40;;;;;;;10.14;61.66;99104.61;1811201;78;21021;-58
2021/10/06 07:22:04;;;;;;;13.05;7.03;;;;;;;10.25;61.58;99095.55;1813051;78;21063;-60
2021/10/06 07:24:32;;;;;;;16.48;8.00;;;;;;;10.38;61.33;99092.93;1819485;77;21466;-58
2021/10/06 07:27:00;;;;;;;15.80;7.87;;;;;;;10.46;60.75;99097.23;1809342;77;20915;-59
2021/10/06 07:29:26;;;;;;;13.90;7.15;;;;;;;10.56;60.89;99091.11;1780915;79;21041;-57
2021/10/06 07:31:53;;;;;;;22.07;7.55;;;;;;;10.67;60.80;99104.27;1822165;78;21004;-57
2021/10/06 07:34:20;;;;;;;11.95;7.60;;;;;;;10.77;60.65;99104.83;1822059;77;21703;-60
2021/10/06 07:36:47;;;;;;;20.15;7.60;;;;;;;10.89;60.60;99108.89;1776886;80;21383;-56
2021/10/06 07:39:13;;;;;;;12.50;7.12;;;;;;;10.99;59.98;99100.88;1791313;78;20892;-59
2021/10/06 07:41:40;;;;;;;20.90;6.83;;;;;;;11.08;59.54;99096.31;1779215;79;20970;-57
2021/10/06 07:44:07;;;;;;;14.23;6.90;;;;;;;11.16;59.57;99094.45;1800984;78;20924;-60
2021/10/06 07:46:34;;;;;;;19.70;7.17;;;;;;;11.25;59.34;99103.58;1772764;80;21871;-59
2021/10/06 07:49:08;;;;;;;23.12;7.30;;;;;;;11.32;59.26;99096.07;1822100;78;20873;-59
2021/10/06 07:51:46;;;;;;;15.95;6.87;;;;;;;11.41;59.16;99103.84;1786839;79;20935;-59
2021/10/06 07:54:17;;;;;;;12.93;6.28;;;;;;;11.52;58.83;99091.50;1821763;78;20921;-61
2021/10/06 07:56:46;;;;;;;11.40;6.00;;;;;;;11.63;58.54;99097.67;1821947;77;20864;-60
2021/10/06 07:59:14;;;;;;;15.80;6.58;;;;;;;11.71;58.48;99092.30;1750925;80;22098;-59
2021/10/06 08:01:40;;;;;;;18.45;6.40;;;;;;;11.82;58.54;99100.09;1789504;80;20974;-61
2021/10/06 08:04:07;;;;;;;21.25;6.30;;;;;;;11.93;58.50;99105.70;1753936;80;21375;-60
2021/10/06 08:06:34;;;;;;;22.65;6.78;;;;;;;12.03;57.63;99099.51;1749739;82;20927;-60
2021/10/06 08:09:01;;;;;;;14.10;5.97;;;;;;;12.10;57.09;99106.20;1758880;80;20995;-64
2021/10/06 08:11:31;;;;;;;20.82;6.40;;;;;;;12.15;56.91;99098.11;1827323;77;21040;-60
2021/10/06 08:14:08;;;;;;;17.37;6.80;;;;;;;12.21;57.30;99106.97;1825176;78;20963;-61
2021/10/06 08:16:40;;;;;;;13.40;6.30;;;;;;;12.30;56.79;99096.73;1819103;78;20939;-64
2021/10/06 08:19:08;;;;;;;14.45;6.92;;;;;;;12.40;56.04;99100.45;1756068;80;21187;-59
2021/10/06 08:21:35;;;;;;;16.23;6.33;;;;;;;12.47;56.31;99101.77;1809154;78;21050;-61
2021/10/06 08:24:05;;;;;;;18.00;6.47;;;;;;;12.57;55.58;99094.20;1778207;80;21117;-60
2021/10/06 08:26:43;;;;;;;18.73;6.30;;;;;;;12.65;54.94;99098.45;1776841;80;20931;-63
2021/10/06 08:29:12;;;;;;;16.75;7.22;;;;;;;12.71;54.79;99105.95;1755640;80;20971;-61
2021/10/06 08:31:41;;;;;;;16.93;6.12;;;;;;;12.81;54.50;99096.50;1777057;80;20987;-59
2021/10/06 08:34:09;;;;;;;25.62;7.03;;;;;;;12.88;54.62;99105.06;1776293;80;21027;-60
2021/10/06 08:36:39;;;;;;;21.93;6.60;;;;;;;12.95;53.31;99105.55;1776121;80;21129;-59
2021/10/06 08:39:09;;;;;;;13.70;6.10;;;;;;;13.01;53.02;99086.41;1776155;80;21485;-59
2021/10/06 08:41:37;;;;;;;22.25;6.75;;;;;;;13.08;53.21;99092.84;1761930;80;21096;-59
2021/10/06 08:44:05;;;;;;;15.48;6.17;;;;;;;13.14;52.88;99095.78;1778694;79;21080;-58
2021/10/06 08:46:32;;;;;;;16.30;6.70;;;;;;;13.23;52.44;99094.63;1777309;79;21407;-61
2021/10/06 08:49:00;;;;;;;15.43;6.30;;;;;;;13.31;51.81;99078.67;1777514;79;21125;-60
2021/10/06 08:51:29;;;;;;;9.45;5.87;;;;;;;13.38;51.21;99076.47;1799430;79;21015;-61
2021/10/06 08:53:56;;;;;;;15.83;6.08;;;;;;;13.40;51.31;99078.33;1759066;81;21489;-57
2021/10/06 08:56:25;;;;;;;20.82;6.72;;;;;;;13.42;51.87;99070.80;1758680;81;21029;-59
2021/10/06 08:58:52;;;;;;;15.13;5.70;;;;;;;13.50;50.94;99098.44;1770680;81;21176;-60
2021/10/06 09:01:26;;;;;;;17.23;5.90;;;;;;;13.57;50.22;99100.26;1816142;79;21108;-58
2021/10/06 09:03:58;;;;;;;25.97;6.20;;;;;;;13.60;49.53;99105.08;1815578;79;20988;-58
2021/10/06 09:06:40;;;;;;;13.03;6.12;;;;;;;13.64;49.53;99091.31;1780282;79;21378;-58
2021/10/06 09:09:15;;;;;;;28.65;6.42;;;;;;;13.72;49.42;99104.70;1812758;78;20884;-58
2021/10/06 09:11:44;;;;;;;;;;;;;;;13.82;48.51;99106.50;1818541;79;21418;-59
2021/10/06 09:14:11;;;;;;;16.02;6.03;;;;;;;13.88;48.39;99094.58;1819559;78;20635;-59
2021/10/06 09:16:38;;;;;;;14.83;5.72;;;;;;;13.93;48.10;99097.23;1819979;78;20936;-59
2021/10/06 09:19:07;;;;;;;17.87;5.45;;;;;;;13.99;47.26;99105.53;1819482;78;20981;-55
2021/10/06 09:21:55;;;;;;;12.65;5.80;;;;;;;14.02;47.10;99092.81;1787265;79;21009;-58
2021/10/06 09:24:25;;;;;;;16.77;6.08;;;;;;;14.02;47.13;99094.16;1768255;79;20980;-57
2021/10/06 09:27:10;;;;;;;16.30;5.55;;;;;;;14.03;46.92;99091.20;1767971;79;21741;-60
2021/10/06 09:29:51;;;;;;;10.48;5.65;;;;;;;14.10;46.28;99093.55;1791387;79;20963;-60
2021/10/06 09:32:32;;;;;;;14.28;6.08;;;;;;;14.14;46.33;99094.58;1776745;79;20923;-57
2021/10/06 09:35:04;;;;;;;18.80;6.45;;;;;;;14.18;46.75;99103.68;1761873;81;20948;-59
2021/10/06 09:37:33;;;;;;;18.30;6.05;;;;;;;14.30;44.88;99104.12;1734413;82;21098;-57
2021/10/06 09:40:00;;;;;;;17.90;6.12;;;;;;;14.39;44.53;99101.04;1747890;81;21063;-58
2021/10/06 09:42:27;;;;;;;17.65;5.65;;;;;;;14.45;44.49;99076.19;1764536;80;20968;-59
2021/10/06 09:44:57;;;;;;;16.00;5.65;;;;;;;14.48;44.59;99102.03;1763168;81;21238;-61
2021/10/06 09:47:25;;;;;;;20.10;5.47;;;;;;;14.48;44.59;99091.25;1751653;81;21067;-60
2021/10/06 09:49:56;;;;;;;20.37;5.42;;;;;;;14.49;43.79;99094.72;1718290;81;21114;-59
2021/10/06 09:52:26;;;;;;;14.30;5.65;;;;;;;14.46;44.04;99101.49;1761983;80;21399;-57
2021/10/06 09:54:59;;;;;;;26.82;6.17;;;;;;;14.47;44.26;99097.72;1761748;80;21533;-59
2021/10/06 09:57:35;;;;;;;23.38;6.33;;;;;;;14.55;43.78;99099.78;1737765;81;21101;-57
2021/10/06 10:00:19;;;;;;;27.87;6.45;;;;;;;14.61;43.21;99097.27;1760854;80;20986;-59
2021/10/06 10:02:49;;;;;;;17.73;6.22;;;;;;;14.68;42.62;99095.02;1745575;81;21089;-58
2021/10/06 10:05:16;;;;;;;21.65;5.70;;;;;;;14.74;43.26;99104.66;1746837;82;21315;-57
2021/10/06 10:10:17;;;;;;;16.05;6.08;;;;;;;14.86;42.07;99100.97;1746763;80;20928;-58
2021/10/06 10:12:44;;;;;;;19.90;5.90;;;;;;;14.83;42.14;99099.41;1763571;80;21027;-58
2021/10/06 10:15:12;;;;;;;16.55;5.80;;;;;;;14.74;42.41;99092.53;1751479;80;20986;-59
2021/10/06 10:17:40;;;;;;;15.58;5.40;;;;;;;14.67;42.46;99105.56;1746322;82;21062;-57
2021/10/06 10:20:11;;;;;;;12.28;5.50;;;;;;;14.65;42.87;99096.16;1752794;80;20994;-57
2021/10/06 10:22:55;;;;;;;10.82;5.62;;;;;;;14.70;43.32;99101.46;1776389;80;20833;-58
2021/10/06 10:25:27;;;;;;;26.05;5.83;;;;;;;14.81;43.07;99082.18;1783751;79;20963;-57
2021/10/06 10:28:10;;;;;;;16.37;5.97;;;;;;;14.90;41.45;99097.16;1786478;79;21002;-58
2021/10/06 10:30:40;;;;;;;12.00;5.70;;;;;;;14.90;41.65;99107.41;1807143;79;21066;-57
2021/10/06 10:33:07;;;;;;;10.78;4.95;;;;;;;14.87;41.51;99101.77;1784897;79;20825;-60
2021/10/06 10:35:42;;;;;;;5.83;4.78;;;;;;;14.81;41.93;99092.97;1762312;79;20884;-59
2021/10/06 10:38:15;;;;;;;9.93;5.78;;;;;;;14.81;42.41;99097.02;1777324;80;21363;-58
2021/10/06 10:40:45;;;;;;;13.43;5.87;;;;;;;14.89;42.12;99103.09;1785413;80;21526;-58
2021/10/06 10:43:27;;;;;;;10.98;5.55;;;;;;;14.95;41.61;99095.20;1790227;79;21557;-60
2021/10/06 10:46:10;;;;;;;11.70;5.25;;;;;;;14.98;41.92;99093.24;1751130;81;20936;-59
2021/10/06 10:49:01;;;;;;;12.55;5.95;;;;;;;15.04;41.82;99078.60;1816339;78;20908;-57
2021/10/06 10:51:49;;;;;;;9.23;5.80;;;;;;;15.05;42.54;99097.72;1817710;79;21340;-58
2021/10/06 10:54:42;;;;;;;10.68;5.92;;;;;;;15.13;42.98;99096.81;1817542;79;20895;-58
2021/10/06 10:57:27;;;;;;;18.48;6.20;;;;;;;15.27;42.85;99076.08;1817892;78;23117;-57
2021/10/06 10:59:57;;;;;;;15.32;6.00;;;;;;;15.39;42.64;99095.32;1819454;78;21001;-58
2021/10/06 11:02:41;;;;;;;13.98;6.10;;;;;;;15.46;42.67;99095.77;1784466;80;20935;-59
2021/10/06 11:05:09;;;;;;;15.88;5.70;;;;;;;15.52;42.17;99084.59;1784404;80;21394;-60
2021/10/06 11:07:52;;;;;;;13.43;5.50;;;;;;;15.58;41.81;99113.67;1754876;80;21431;-58
2021/10/06 11:10:22;;;;;;;15.53;5.67;;;;;;;15.60;41.62;99099.32;1787766;79;21125;-61
2021/10/06 11:13:03;;;;;;;15.15;5.70;;;;;;;15.65;41.36;99083.84;1778095;79;20930;-59
2021/10/06 11:15:26;;;;;;;16.50;5.05;;;;;;;15.73;41.15;99083.72;1780713;79;21034;-57
2021/10/06 11:18:22;;;;;;;7.28;4.92;;;;;;;15.82;40.53;99084.63;1794085;79;20947;-59
2021/10/06 11:20:52;;;;;;;10.70;5.33;;;;;;;15.90;40.21;99081.22;1786125;79;20911;-58
2021/10/06 11:23:34;;;;;;;12.85;5.50;;;;;;;15.95;40.61;99083.83;1785484;80;21241;-59
2021/10/06 11:26:07;;;;;;;16.12;5.72;;;;;;;16.03;40.26;99092.61;1766638;80;21485;-58
2021/10/06 11:28:43;;;;;;;13.18;5.70;;;;;;;16.11;39.98;99094.60;1745964;81;21063;-58
2021/10/06 11:31:10;;;;;;;14.07;5.17;;;;;;;16.15;39.91;99078.05;1756038;80;20976;-60
2021/10/06 11:33:36;;;;;;;13.68;5.53;;;;;;;16.18;39.94;99080.14;1746181;81;21601;-59
2021/10/06 11:36:15;;;;;;;13.62;5.75;;;;;;;16.21;39.36;99080.09;1751659;80;21084;-57
2021/10/06 11:38:46;;;;;;;7.12;5.58;;;;;;;16.14;39.05;99087.80;1764373;80;21024;-58
2021/10/06 11:41:13;;;;;;;10.23;5.30;;;;;;;16.08;39.11;99082.25;1766999;81;21060;-59
2021/10/06 11:43:48;;;;;;;13.20;5.37;;;;;;;16.09;39.41;99077.89;1743363;82;21017;-59
2021/10/06 11:46:19;;;;;;;10.75;5.30;;;;;;;16.17;39.19;99079.09;1745499;81;21019;-58
2021/10/06 11:48:52;;;;;;;16.37;5.40;;;;;;;16.29;38.71;99069.39;1742331;82;21180;-59
2021/10/06 11:51:19;;;;;;;17.00;5.60;;;;;;;16.38;38.92;99081.10;1742099;82;20936;-58
2021/10/06 11:53:48;;;;;;;9.38;5.20;;;;;;;16.41;38.84;99079.70;1748833;80;20995;-57
2021/10/06 11:56:29;;;;;;;9.45;5.10;;;;;;;16.46;38.62;99076.09;1741776;82;21130;-59
2021/10/06 11:59:10;;;;;;;9.90;5.25;;;;;;;16.51;38.39;99074.63;1742216;82;21022;-58
2021/10/06 12:01:38;;;;;;;7.70;5.30;;;;;;;16.51;38.54;99063.81;1750337;81;21123;-59
2021/10/06 12:04:13;;;;;;;12.95;5.28;;;;;;;16.46;37.70;99058.52;1773510;81;20981;-59
2021/10/06 12:06:46;;;;;;;9.90;4.80;;;;;;;16.40;38.08;99054.56;1764733;81;20919;-60
2021/10/06 12:09:14;;;;;;;14.30;5.25;;;;;;;16.46;38.42;99053.11;1765088;81;21459;-58
2021/10/06 12:11:45;;;;;;;12.63;5.35;;;;;;;16.59;38.32;99053.65;1765318;81;21317;-59
2021/10/06 12:14:29;;;;;;;11.20;5.00;;;;;;;16.65;37.67;99045.69;1715249;82;21145;-59
2021/10/06 12:17:02;;;;;;;17.70;5.17;;;;;;;16.63;37.55;99058.73;1754369;81;21423;-58
2021/10/06 12:19:28;;;;;;;9.93;4.85;;;;;;;16.60;38.20;99063.37;1764566;81;20924;-57
2021/10/06 12:21:55;;;;;;;9.40;4.30;;;;;;;16.61;37.87;99060.91;1764802;81;20897;-59
2021/10/06 12:24:25;;;;;;;13.05;5.20;;;;;;;16.66;37.88;99049.44;1765539;81;20931;-58
2021/10/06 12:26:52;;;;;;;10.90;4.37;;;;;;;16.71;37.18;99037.16;1781191;79;21680;-60
2021/10/06 12:29:21;;;;;;;14.23;4.42;;;;;;;16.68;37.00;99035.59;1754400;81;20844;-59
2021/10/06 12:31:48;;;;;;;21.05;5.75;;;;;;;16.65;37.59;99056.52;1754330;81;20880;-58
2021/10/06 12:34:21;;;;;;;10.32;4.72;;;;;;;16.62;37.02;99053.05;1792385;79;21372;-59
2021/10/06 12:36:50;;;;;;;12.10;4.35;;;;;;;16.60;37.16;99063.37;1785395;80;20914;-60
2021/10/06 12:39:27;;;;;;;8.88;4.40;;;;;;;16.62;37.11;99049.00;1772529;79;21478;-60
2021/10/06 12:41:57;;;;;;;9.68;4.60;;;;;;;16.69;37.30;99058.30;1760552;80;21087;-59
2021/10/06 12:44:34;;;;;;;9.05;4.90;;;;;;;16.77;37.11;99060.84;1776565;80;20893;-59
2021/10/06 12:47:29;;;;;;;11.88;4.50;;;;;;;16.82;36.67;99049.88;1777374;80;21086;-59
2021/10/06 12:49:56;;;;;;;8.38;4.62;;;;;;;16.87;36.82;99043.01;1777642;80;21062;-58
2021/10/06 12:52:28;;;;;;;7.60;4.20;;;;;;;16.95;36.85;99046.35;1783442;80;21878;-58
2021/10/06 12:55:06;;;;;;;7.12;4.25;;;;;;;16.95;36.56;99047.70;1803369;79;21030;-57
2021/10/06 12:57:34;;;;;;;12.33;4.30;;;;;;;16.94;36.84;99039.33;1783477;80;21085;-59
2021/10/06 13:00:00;;;;;;;11.95;4.53;;;;;;;17.02;37.13;99046.18;1804208;79;20971;-58
2021/10/06 13:02:27;;;;;;;5.47;4.25;;;;;;;17.14;35.65;99036.16;1783946;80;21015;-58
2021/10/06 13:04:54;;;;;;;15.88;7.40;;;;;;;17.14;36.20;99023.97;1785271;80;21058;-57
2021/10/06 13:07:20;;;;;;;20.25;5.40;;;;;;;17.10;35.92;99033.25;1776669;80;21025;-57
2021/10/06 13:09:48;;;;;;;6.15;3.80;;;;;;;17.05;35.63;99023.12;1787887;80;20907;-57
2021/10/06 13:12:15;;;;;;;12.53;4.70;;;;;;;16.98;35.79;99029.52;1776679;80;20907;-59
2021/10/06 13:14:43;;;;;;;8.30;4.60;;;;;;;16.96;36.34;99023.58;1787001;80;20982;-57
2021/10/06 13:17:09;;;;;;;6.25;4.03;;;;;;;17.03;36.68;99029.36;1786661;80;21121;-59
2021/10/06 13:19:36;;;;;;;11.00;4.47;;;;;;;17.10;36.06;99035.95;1787828;80;20884;-58
2021/10/06 13:22:03;;;;;;;8.78;3.80;;;;;;;17.14;35.45;99036.16;1787761;80;20970;-58
2021/10/06 13:24:30;;;;;;;7.15;3.45;;;;;;;17.12;34.85;99036.22;1784231;80;20956;-59
2021/10/06 13:26:57;;;;;;;6.78;4.00;;;;;;;17.03;35.25;99036.94;1803820;79;20879;-59
2021/10/06 13:29:25;;;;;;;8.68;4.78;;;;;;;17.03;35.56;99038.29;1762657;81;21183;-59
2021/10/06 13:51:18;;;;;;;9.13;4.62;;;;;;;16.54;36.41;99042.94;1871520;76;23237;-59
2021/10/06 13:53:45;;;;;;;9.35;4.40;;;;;;;16.42;37.01;99051.00;1828010;77;20840;-60
2021/10/06 13:56:13;;;;;;;8.58;4.22;;;;;;;16.31;37.16;99048.27;1827849;78;21109;-60
2021/10/06 13:58:40;;;;;;;7.58;3.58;;;;;;;16.20;37.17;99042.02;1827984;78;20955;-60
2021/10/06 14:01:08;;;;;;;5.12;4.10;;;;;;;16.05;37.28;99049.88;1827733;78;21427;-59
2021/10/06 14:03:35;;;;;;;10.68;4.05;;;;;;;15.93;37.62;99054.16;1827710;78;20930;-59
2021/10/06 14:06:02;;;;;;;10.65;4.03;;;;;;;15.87;37.97;99049.96;1827866;78;21435;-59
2021/10/06 14:08:30;;;;;;;8.38;3.87;;;;;;;15.85;38.29;99051.59;1827734;78;21116;-58
2021/10/06 14:10:58;;;;;;;8.08;3.72;;;;;;;15.83;38.29;99041.64;1827726;78;21229;-60
2021/10/06 14:13:25;;;;;;;10.68;4.10;;;;;;;15.77;38.14;99037.45;1827850;78;20871;-58
2021/10/06 14:15:53;;;;;;;7.75;3.50;;;;;;;15.63;38.42;99042.03;1827807;78;20931;-59
2021/10/06 14:18:21;;;;;;;9.65;4.05;;;;;;;15.47;38.84;99038.00;1827842;78;20933;-58
2021/10/06 14:20:50;;;;;;;7.10;4.10;;;;;;;15.38;39.45;99037.05;1827722;78;21061;-57
2021/10/06 14:23:17;;;;;;;11.30;4.60;;;;;;;15.27;39.87;99046.39;1761415;80;21004;-60
2021/10/06 14:25:44;;;;;;;11.20;4.30;;;;;;;15.21;40.41;99040.83;1791565;80;21406;-59
2021/10/06 14:28:10;;;;;;;8.83;4.28;;;;;;;15.11;40.69;99053.12;1791622;79;20951;-59
2021/10/06 14:30:37;;;;;;;9.10;3.90;;;;;;;14.99;40.45;99059.78;1791238;80;20882;-60
2021/10/06 14:33:03;;;;;;;5.97;3.95;;;;;;;14.89;40.56;99050.48;1791536;80;21770;-59
2021/10/06 14:35:31;;;;;;;9.63;4.40;;;;;;;14.86;40.49;99047.02;1791167;80;20970;-60
2021/10/06 14:37:59;;;;;;;7.60;4.03;;;;;;;14.91;40.87;99048.30;1791347;80;20867;-59
2021/10/06 14:40:25;;;;;;;7.33;3.95;;;;;;;14.97;40.62;99055.78;1791581;80;20879;-56
2021/10/06 14:42:52;;;;;;;7.10;4.37;;;;;;;14.93;40.54;99044.75;1791358;80;20932;-56
2021/10/06 14:45:23;;;;;;;11.70;4.92;;;;;;;14.81;40.77;99049.81;1791469;80;21126;-58
2021/10/06 14:47:47;;;;;;;10.05;4.83;;;;;;;14.66;41.19;99050.56;1786600;79;20994;-56
2021/10/06 14:50:14;;;;;;;15.18;8.08;;;;;;;14.48;42.01;99045.42;1788813;80;20871;-57
2021/10/06 14:52:40;;;;;;;22.75;12.18;;;;;;;14.34;42.44;99043.19;1786022;80;20934;-58
2021/10/06 14:55:10;;;;;;;13.75;8.73;;;;;;;14.19;42.57;99047.38;1785974;80;20884;-58
2021/10/06 14:57:37;;;;;;;14.23;6.25;;;;;;;14.04;43.05;99051.04;1786073;80;21715;-60
2021/10/06 15:00:05;;;;;;;11.48;5.55;;;;;;;13.87;43.27;99039.13;1785995;80;21024;-58
2021/10/06 15:02:33;;;;;;;12.28;6.22;;;;;;;13.73;43.94;99040.91;1785418;80;20903;-58
2021/10/06 15:04:59;;;;;;;13.25;7.22;;;;;;;13.58;44.08;99046.70;1785466;80;20923;-58
2021/10/06 15:07:27;;;;;;;15.13;8.18;;;;;;;13.44;44.30;99045.75;1785473;80;20903;-58
2021/10/06 15:09:54;;;;;;;16.75;9.20;;;;;;;13.33;44.49;99044.78;1785455;80;21114;-59
2021/10/06 15:12:21;;;;;;;14.70;8.68;;;;;;;13.23;44.89;99048.36;1785409;80;20962;-58
2021/10/06 15:14:52;;;;;;;16.30;13.20;;;;;;;13.14;45.21;99055.43;1785786;80;21383;-58
2021/10/06 15:17:17;;;;;;;16.02;6.58;;;;;;;13.08;45.41;99059.23;1785026;80;20888;-60
2021/10/06 15:19:43;;;;;;;10.40;5.87;;;;;;;12.97;45.64;99059.02;1785710;80;21442;-60
2021/10/06 15:22:11;;;;;;;7.05;5.28;;;;;;;12.90;45.98;99059.88;1785423;80;21106;-58
2021/10/06 15:24:38;;;;;;;9.73;6.10;;;;;;;12.82;46.32;99061.80;1785690;80;20903;-58
2021/10/06 15:27:05;;;;;;;12.30;6.17;;;;;;;12.74;46.43;99063.74;1785667;80;20879;-58
2021/10/06 15:29:33;;;;;;;12.45;7.72;;;;;;;12.66;46.83;99058.41;1785326;80;20919;-58
2021/10/06 15:32:00;;;;;;;20.62;10.72;;;;;;;12.60;46.88;99060.84;1785499;80;21406;-61
